createdAt,value
2023-05-05T00:01:08.627Z,21.60
2023-05-05T00:06:01.915Z,21.74
2023-05-05T00:10:54.842Z,21.87
2023-05-05T00:15:53.662Z,21.79
2023-05-05T00:20:47.890Z,21.64
2023-05-05T00:25:41.549Z,21.82
2023-05-05T00:30:35.246Z,21.85
2023-05-05T00:35:27.456Z,21.82
2023-05-05T00:40:19.748Z,21.72
2023-05-05T00:45:16.207Z,21.72
2023-05-05T00:50:10.457Z,21.70
2023-05-05T00:55:04.549Z,21.88
2023-05-05T01:00:00.339Z,21.85
2023-05-05T01:04:55.760Z,21.87
2023-05-05T01:10:20.221Z,21.74
2023-05-05T01:15:28.072Z,21.87
2023-05-05T01:20:41.281Z,21.87
2023-05-05T01:26:03.068Z,21.87
2023-05-05T01:31:53.658Z,21.89
2023-05-05T01:37:10.118Z,21.84
2023-05-05T01:42:24.966Z,21.81
2023-05-05T01:47:21.875Z,21.72
2023-05-05T01:52:34.379Z,21.78
2023-05-05T01:57:30.036Z,21.80
2023-05-05T02:02:42.923Z,21.79
2023-05-05T02:07:58.549Z,21.79
2023-05-05T02:12:53.265Z,21.77
2023-05-05T02:17:48.471Z,21.68
2023-05-05T02:22:42.065Z,21.78
2023-05-05T02:27:38.635Z,21.62
2023-05-05T02:32:53.675Z,21.62
2023-05-05T02:37:56.719Z,21.63
2023-05-05T02:42:51.891Z,21.78
2023-05-05T02:47:47.083Z,21.64
2023-05-05T02:52:40.894Z,21.76
2023-05-05T02:57:35.564Z,21.76
2023-05-05T03:02:42.393Z,21.72
2023-05-05T03:07:43.008Z,21.74
2023-05-05T03:12:55.310Z,21.59
2023-05-05T03:17:58.850Z,21.72
2023-05-05T03:22:53.184Z,21.66
2023-05-05T03:27:45.751Z,21.72
2023-05-05T03:32:42.251Z,21.60
2023-05-05T03:37:35.622Z,21.76
2023-05-05T03:42:29.207Z,21.76
2023-05-05T03:47:24.729Z,21.64
2023-05-05T03:52:20.736Z,21.51
2023-05-05T03:57:13.749Z,21.77
2023-05-05T04:02:07.444Z,21.78
2023-05-05T04:06:59.781Z,21.77
2023-05-05T04:11:52.933Z,21.80
2023-05-05T04:16:47.780Z,21.54
2023-05-05T04:21:41.315Z,21.78
2023-05-05T04:26:34.700Z,21.82
2023-05-05T04:31:28.060Z,21.67
2023-05-05T04:36:20.428Z,21.82
2023-05-05T04:41:14.284Z,21.55
2023-05-05T04:46:09.044Z,21.83
2023-05-05T04:51:06.810Z,21.70
2023-05-05T04:56:03.309Z,21.80
2023-05-05T05:00:56.821Z,21.85
2023-05-05T05:05:49.928Z,21.85
2023-05-05T05:10:44.144Z,21.86
2023-05-05T05:15:39.644Z,21.74
2023-05-05T05:20:33.438Z,21.87
2023-05-05T05:25:27.612Z,21.85
2023-05-05T05:30:21.642Z,21.86
2023-05-05T05:35:15.529Z,21.69
2023-05-05T05:40:11.092Z,21.76
2023-05-05T05:45:06.212Z,21.85
2023-05-05T05:49:59.358Z,21.86
2023-05-05T05:54:57.187Z,21.87
2023-05-05T05:59:51.124Z,21.59
2023-05-05T06:04:44.556Z,21.85
2023-05-05T06:09:38.608Z,21.80
2023-05-05T06:14:31.124Z,21.83
2023-05-05T06:19:24.488Z,21.75
2023-05-05T06:24:18.982Z,21.73
2023-05-05T06:29:12.565Z,21.72
2023-05-05T06:34:05.165Z,21.76
2023-05-05T06:38:57.379Z,21.63
2023-05-05T06:43:52.393Z,21.78
2023-05-05T06:48:46.254Z,21.77
2023-05-05T06:53:39.872Z,21.77
2023-05-05T06:58:32.891Z,21.76
2023-05-05T07:03:27.477Z,21.74
2023-05-05T07:08:20.145Z,21.59
2023-05-05T07:13:13.988Z,21.57
2023-05-05T07:18:07.144Z,21.13
2023-05-05T07:23:00.814Z,21.02
2023-05-05T07:27:54.652Z,20.85
2023-05-05T07:32:47.773Z,21.05
2023-05-05T07:37:41.861Z,21.21
2023-05-05T07:42:34.761Z,21.31
2023-05-05T07:47:27.982Z,21.26
2023-05-05T07:52:30.047Z,21.21
2023-05-05T07:57:31.668Z,21.44
2023-05-05T08:02:24.496Z,21.48
2023-05-05T08:07:18.027Z,21.46
2023-05-05T08:12:12.811Z,21.46
2023-05-05T08:17:05.986Z,21.56
2023-05-05T08:22:01.216Z,21.56
2023-05-05T08:26:54.972Z,21.55
2023-05-05T08:31:48.498Z,21.62
2023-05-05T08:36:40.976Z,21.60
2023-05-05T08:41:33.791Z,21.63
2023-05-05T08:46:31.999Z,21.50
2023-05-05T08:51:32.057Z,21.64
2023-05-05T08:56:33.141Z,21.65
2023-05-05T09:01:34.231Z,21.56
2023-05-05T09:06:28.124Z,21.57
2023-05-05T09:11:22.698Z,21.72
2023-05-05T09:16:16.481Z,21.72
2023-05-05T09:21:26.476Z,21.61
2023-05-05T09:26:19.898Z,21.64
2023-05-05T09:31:16.067Z,21.73
2023-05-05T09:36:09.534Z,21.79
2023-05-05T09:41:02.765Z,21.76
2023-05-05T09:46:09.064Z,21.74
2023-05-05T09:51:02.658Z,21.74
2023-05-05T09:56:00.985Z,21.65
2023-05-05T10:00:54.506Z,21.77
2023-05-05T10:05:56.179Z,21.81
2023-05-05T10:10:57.969Z,21.75
2023-05-05T10:15:53.132Z,21.76
2023-05-05T10:20:46.090Z,21.53
2023-05-05T10:25:47.004Z,21.65
2023-05-05T10:30:46.582Z,21.68
2023-05-05T10:35:45.878Z,21.79
2023-05-05T10:40:49.151Z,21.83
2023-05-05T10:45:43.665Z,21.79
2023-05-05T10:50:42.905Z,21.65
2023-05-05T10:56:14.422Z,21.82
2023-05-05T11:01:08.730Z,21.68
2023-05-05T11:06:03.723Z,21.80
2023-05-05T11:10:57.253Z,21.81
2023-05-05T11:15:54.384Z,21.70
2023-05-05T11:20:59.836Z,21.83
2023-05-05T11:25:54.536Z,21.83
2023-05-05T11:30:59.938Z,21.84
2023-05-05T11:36:03.410Z,21.86
2023-05-05T11:41:06.207Z,21.85
2023-05-05T11:46:11.981Z,21.86
2023-05-05T11:51:10.171Z,21.71
2023-05-05T11:56:10.364Z,21.71
2023-05-05T12:01:27.267Z,21.82
2023-05-05T12:06:21.134Z,21.82
2023-05-05T12:11:14.260Z,21.77
2023-05-05T12:16:13.701Z,21.83
2023-05-05T12:21:17.801Z,21.81
2023-05-05T12:26:27.730Z,21.84
2023-05-05T12:31:21.320Z,21.81
2023-05-05T12:36:14.567Z,21.82
2023-05-05T12:41:07.835Z,21.81
2023-05-05T12:46:04.074Z,21.84
2023-05-05T12:51:17.828Z,21.84
2023-05-05T12:56:49.029Z,21.82
2023-05-05T13:01:50.915Z,21.85
2023-05-05T13:06:45.857Z,21.70
2023-05-05T13:11:40.400Z,21.83
2023-05-05T13:16:33.533Z,21.87
2023-05-05T13:21:26.729Z,21.85
2023-05-05T13:26:20.721Z,21.74
2023-05-05T13:31:13.482Z,21.63
2023-05-05T13:36:07.509Z,21.59
2023-05-05T13:41:01.143Z,21.74
2023-05-05T13:45:55.070Z,21.67
2023-05-05T13:50:50.909Z,21.86
2023-05-05T13:55:43.745Z,21.86
2023-05-05T14:00:38.336Z,21.60
2023-05-05T14:05:34.637Z,21.88
2023-05-05T14:10:30.292Z,21.74
2023-05-05T14:15:23.375Z,21.74
2023-05-05T14:20:16.450Z,21.88
2023-05-05T14:25:10.093Z,21.88
2023-05-05T14:30:04.084Z,21.89
2023-05-05T14:34:58.014Z,21.81
2023-05-05T14:39:51.582Z,21.88
2023-05-05T14:44:44.957Z,21.75
2023-05-05T14:49:40.001Z,21.84
2023-05-05T14:54:33.599Z,21.76
2023-05-05T14:59:28.436Z,21.90
2023-05-05T15:04:21.449Z,21.81
2023-05-05T15:09:16.087Z,21.92
2023-05-05T15:14:11.122Z,21.84
2023-05-05T15:19:04.652Z,21.92
2023-05-05T15:23:58.411Z,21.81
2023-05-05T15:28:53.292Z,21.70
2023-05-05T15:33:52.713Z,21.94
2023-05-05T15:38:45.699Z,21.96
2023-05-05T15:43:43.627Z,21.93
2023-05-05T15:48:36.441Z,21.96
2023-05-05T15:53:29.042Z,21.95
2023-05-05T15:58:22.964Z,21.94
2023-05-05T16:03:16.025Z,21.87
2023-05-05T16:08:11.300Z,21.84
2023-05-05T16:13:04.075Z,21.70
2023-05-05T16:17:56.775Z,21.95
2023-05-05T16:22:50.008Z,21.85
2023-05-05T16:27:43.180Z,21.86
2023-05-05T16:32:36.713Z,22.00
2023-05-05T16:37:30.596Z,21.99
2023-05-05T16:42:23.790Z,21.91
2023-05-05T16:47:16.669Z,21.91
2023-05-05T16:52:10.388Z,21.96
2023-05-05T16:57:03.781Z,21.99
2023-05-05T17:01:57.329Z,21.88
2023-05-05T17:06:51.197Z,21.72
2023-05-05T17:11:44.366Z,21.99
2023-05-05T17:16:38.151Z,22.01
2023-05-05T17:21:33.469Z,22.03
2023-05-05T17:26:26.573Z,21.87
2023-05-05T17:31:20.626Z,22.03
2023-05-05T17:36:13.659Z,21.90
2023-05-05T17:41:07.188Z,22.08
2023-05-05T17:46:01.750Z,22.08
2023-05-05T17:50:55.191Z,21.95
2023-05-05T17:55:48.657Z,21.97
2023-05-05T18:00:42.755Z,21.87
2023-05-05T18:05:35.986Z,22.13
2023-05-05T18:10:28.972Z,22.09
2023-05-05T18:15:22.565Z,22.02
2023-05-05T18:20:14.917Z,22.15
2023-05-05T18:25:10.712Z,22.05
2023-05-05T18:30:05.294Z,22.17
2023-05-05T18:34:59.904Z,22.04
2023-05-05T18:39:52.858Z,22.09
2023-05-05T18:44:45.015Z,22.21
2023-05-05T18:49:39.081Z,22.18
2023-05-05T18:54:32.473Z,22.24
2023-05-05T18:59:25.794Z,22.15
2023-05-05T19:04:30.122Z,22.24
2023-05-05T19:09:25.064Z,22.30
2023-05-05T19:14:18.601Z,22.28
2023-05-05T19:19:12.195Z,22.26
2023-05-05T19:24:06.636Z,22.22
2023-05-05T19:28:59.805Z,22.18
2023-05-05T19:33:52.779Z,22.34
2023-05-05T19:38:47.120Z,22.37
2023-05-05T19:43:40.283Z,22.38
2023-05-05T19:48:33.416Z,22.16
2023-05-05T19:53:25.749Z,22.42
2023-05-05T19:58:19.298Z,22.17
2023-05-05T20:03:11.914Z,22.22
2023-05-05T20:08:04.164Z,22.44
2023-05-05T20:12:57.413Z,22.39
2023-05-05T20:17:50.175Z,22.31
2023-05-05T20:22:43.465Z,22.28
2023-05-05T20:27:39.135Z,22.40
2023-05-05T20:32:33.058Z,22.41
2023-05-05T20:37:27.588Z,22.37
2023-05-05T20:42:20.856Z,22.41
2023-05-05T20:47:18.119Z,22.38
2023-05-05T20:52:11.756Z,22.27
2023-05-05T20:57:05.448Z,22.32
2023-05-05T21:01:59.444Z,22.38
2023-05-05T21:06:52.020Z,22.36
2023-05-05T21:11:44.589Z,22.39
2023-05-05T21:16:38.550Z,22.28
2023-05-05T21:21:32.272Z,22.41
2023-05-05T21:26:28.280Z,22.33
2023-05-05T21:31:22.380Z,22.37
2023-05-05T21:36:18.021Z,22.43
2023-05-05T21:41:10.525Z,22.30
2023-05-05T21:46:10.089Z,22.44
2023-05-05T21:51:02.742Z,22.35
2023-05-05T21:55:55.637Z,22.31
2023-05-05T22:00:51.691Z,22.47
2023-05-05T22:05:44.631Z,22.45
2023-05-05T22:10:38.065Z,22.45
2023-05-05T22:15:45.868Z,22.35
2023-05-05T22:20:40.739Z,22.35
2023-05-05T22:25:33.251Z,22.42
2023-05-05T22:30:26.465Z,22.44
2023-05-05T22:35:20.223Z,22.31
2023-05-05T22:40:13.861Z,22.37
2023-05-05T22:45:09.461Z,22.52
2023-05-05T22:50:02.959Z,22.52
2023-05-05T22:54:56.217Z,22.58
2023-05-05T22:59:49.245Z,22.52
2023-05-05T23:04:47.877Z,22.49
2023-05-05T23:09:41.502Z,22.47
2023-05-05T23:14:33.774Z,22.48
2023-05-05T23:19:29.431Z,22.47
2023-05-05T23:24:22.509Z,22.51
2023-05-05T23:29:16.125Z,22.47
2023-05-05T23:34:13.782Z,22.47
2023-05-05T23:39:06.965Z,22.51
2023-05-05T23:44:00.732Z,22.51
2023-05-05T23:48:55.012Z,22.37
2023-05-05T23:53:47.722Z,22.51
2023-05-05T23:58:40.728Z,22.51
